Hamilton Island, Queensland

1:11 PM AEST on August 31, 2015 (GMT +1000)
Hamilton Island | | Change Station
CLOSE
Current Station
Airport
Location: Hamilton Island,
Elevation: 16 ft
Nearby Weather Stations

Elev 16 ft 20.36 °S, 148.95 °E | Updated 11 minutes ago

Clear
Clear
73 °F
Feels Like 73 °F
N
13
Wind Variable Wind from SE

Today
High -- | Low -- °F
--% Chance of Precip.
Yesterday
High -- | Low -- °F
Precip. -- in
6:14 AM 5:55 PM
Full, 97% visible
Pressure 30.01 in
Visibility 6.2 miles
Clouds
Dew Point 63 °F
Humidity 69%
Rainfall 0.00 in
Snow Depth Not available.
UV Not available.
Pollen Not available.
Air Quality Not available.
Flu Activity Not available.
METAR YBHM 310300Z AUTO 13011KT 9999 // NCD 23/17 Q1016
Pressure 30.01 in
Visibility 6.2 miles
Clouds
Dew Point 63 °F
Humidity 69%
Rainfall 0.00 in
Snow Depth Not available.
UV Not available.
Pollen Not available.
Air Quality Not available.
Flu Activity Not available.
METAR YBHM 310300Z AUTO 13011KT 9999 // NCD 23/17 Q1016

10-Day Weather Forecast

×

Almanac

Astronomy

Aug. 31, 2015 Rise Set
Actual Time
Civil Twilight
Nautical Twilight
Astronomical Twilight
Moon
Length of Visible Light
Length of Day
Tomorrow will be .
, % of the Moon is Illuminated

Today's Extremes

Country Highs Country Lows

Community

WunderPhotos

Upload Photos

1,851,167 photos uploaded!

WunderBlogs® & News

Nearby

Air Quality

  Air Quality AQ Index Pollutant
Not available.

Snow Depth

Station Depth Elevation

Earthquake Activity

City Distance Mag. Time & Date
Minimum magnitude displayed is 2.5.

Coastal Water Temperatures

Place Temperature

Stations

Nearby Weather Stations

Station Location Temp. Windchill Dew Point Humidity Wind Precip. Elev Updated Type